Time;durP1;ratioP1;P1;durP2;ratioP2;P2;SDS_P1;SDS_P2;PMS_P1;PMS_P2;Temp;Humidity;BMP_temperature;BMP_pressure;BME280_temperature;BME280_humidity;BME280_pressure;Samples;Min_cycle;Max_cycle;Signal;HPM_P1;HPM_P2
2023/03/31 00:01:35;;;;;;;20.97;4.50;;;12.80;99.90;;;;;;5096045;28;20180;-75
2023/03/31 00:04:04;;;;;;;10.17;3.47;;;12.90;99.90;;;;;;5096396;28;20171;-75
2023/03/31 00:06:36;;;;;;;12.83;3.50;;;12.90;99.90;;;;;;5096379;28;20635;-74
2023/03/31 00:09:06;;;;;;;11.47;3.73;;;12.90;99.90;;;;;;5096553;28;20183;-75
2023/03/31 00:11:32;;;;;;;9.70;3.13;;;12.80;99.90;;;;;;5096241;28;20180;-76
2023/03/31 00:13:57;;;;;;;15.97;3.67;;;12.80;99.90;;;;;;5096399;28;20190;-76
2023/03/31 00:16:23;;;;;;;14.20;3.13;;;12.70;99.90;;;;;;5095879;28;20568;-74
2023/03/31 00:18:49;;;;;;;10.40;3.20;;;12.70;99.90;;;;;;5095842;28;20285;-75
2023/03/31 00:21:27;;;;;;;12.77;3.53;;;12.70;99.90;;;;;;5096115;28;20175;-73
2023/03/31 00:23:59;;;;;;;11.20;3.90;;;12.70;99.90;;;;;;5096092;28;20170;-74
2023/03/31 00:26:26;;;;;;;14.30;3.30;;;12.70;99.90;;;;;;5095868;28;20171;-74
2023/03/31 00:28:52;;;;;;;11.07;3.57;;;12.70;99.90;;;;;;5096218;28;20175;-75
2023/03/31 00:31:19;;;;;;;13.23;3.37;;;12.60;99.90;;;;;;5095605;28;20172;-76
2023/03/31 00:33:45;;;;;;;13.00;3.73;;;12.60;99.90;;;;;;5095626;28;20663;-74
2023/03/31 00:36:11;;;;;;;8.67;3.13;;;12.50;99.90;;;;;;5095990;28;20168;-73
2023/03/31 00:38:37;;;;;;;8.07;2.90;;;12.40;99.90;;;;;;5095833;28;20191;-75
2023/03/31 00:41:03;;;;;;;10.67;3.43;;;12.30;99.90;;;;;;5095563;28;20179;-75
2023/03/31 00:43:33;;;;;;;9.77;2.80;;;12.20;99.90;;;;;;5076754;28;20172;-74
2023/03/31 00:46:46;;;;;;;9.77;3.10;;;12.10;99.90;;;;;;5095050;28;20172;-72
2023/03/31 00:49:22;;;;;;;10.83;3.30;;;12.00;99.90;;;;;;5013318;28;20277;-73
2023/03/31 00:51:51;;;;;;;11.70;2.50;;;11.90;99.90;;;;;;5013505;28;20194;-75
2023/03/31 00:54:18;;;;;;;10.57;3.50;;;12.00;99.90;;;;;;5013270;28;20194;-74
2023/03/31 00:56:47;;;;;;;16.10;3.90;;;11.90;99.90;;;;;;5013136;28;20213;-73
2023/03/31 00:59:14;;;;;;;10.57;3.47;;;12.00;99.90;;;;;;5012878;28;20186;-74
2023/03/31 01:01:44;;;;;;;18.90;4.13;;;12.00;99.90;;;;;;5013082;28;20201;-75
2023/03/31 01:04:12;;;;;;;10.33;3.50;;;12.00;99.90;;;;;;5013384;28;20252;-74
2023/03/31 01:06:56;;;;;;;15.17;3.97;;;11.90;99.90;;;;;;5013221;28;20178;-76
2023/03/31 01:09:23;;;;;;;13.00;3.60;;;11.90;99.90;;;;;;5013119;28;20174;-75
2023/03/31 01:11:49;;;;;;;9.93;3.57;;;11.90;99.90;;;;;;5013077;28;20353;-75
2023/03/31 01:14:15;;;;;;;16.47;4.00;;;11.90;99.90;;;;;;5012784;28;20245;-74
2023/03/31 01:16:41;;;;;;;13.20;3.33;;;11.90;99.90;;;;;;5012875;28;20214;-76
2023/03/31 01:19:24;;;;;;;14.63;3.47;;;11.90;99.90;;;;;;5012549;28;20230;-74
2023/03/31 01:22:08;;;;;;;15.23;3.50;;;11.90;99.90;;;;;;5013013;28;20324;-75
2023/03/31 01:25:15;;;;;;;11.27;3.20;;;11.80;99.90;;;;;;5025563;28;20200;-74
2023/03/31 01:28:08;;;;;;;15.10;3.20;;;11.80;99.90;;;;;;5074377;28;20175;-74
2023/03/31 01:30:58;;;;;;;14.90;2.90;;;11.80;99.90;;;;;;5074261;28;20239;-75
2023/03/31 01:33:58;;;;;;;8.90;2.53;;;11.80;99.90;;;;;;5074493;28;20181;-74
2023/03/31 01:36:57;;;;;;;15.00;3.27;;;11.80;99.90;;;;;;5074265;28;20173;-75
2023/03/31 01:39:49;;;;;;;7.43;2.40;;;11.70;99.90;;;;;;5074484;28;20176;-74
2023/03/31 01:42:29;;;;;;;8.37;3.00;;;11.70;99.90;;;;;;5074185;28;20191;-74
2023/03/31 01:45:07;;;;;;;10.00;3.00;;;11.70;99.90;;;;;;5074332;28;20169;-74
2023/03/31 01:47:39;;;;;;;11.40;3.07;;;11.70;99.90;;;;;;5074309;28;20172;-73
2023/03/31 01:50:17;;;;;;;9.53;2.97;;;11.70;99.90;;;;;;5074180;28;20635;-73
2023/03/31 01:53:07;;;;;;;9.83;2.53;;;11.60;99.90;;;;;;5073931;28;20222;-74
2023/03/31 01:55:39;;;;;;;10.37;2.60;;;11.60;99.90;;;;;;5073294;28;20215;-74
2023/03/31 01:58:25;;;;;;;8.47;2.73;;;11.60;99.90;;;;;;5073820;28;20207;-74
2023/03/31 02:01:12;;;;;;;5.33;1.87;;;11.60;99.90;;;;;;5074053;28;20172;-74
2023/03/31 02:03:46;;;;;;;7.13;1.90;;;11.60;99.90;;;;;;5073924;28;20259;-73
2023/03/31 02:06:27;;;;;;;6.30;2.50;;;11.50;99.90;;;;;;5073697;28;20192;-74
2023/03/31 02:09:05;;;;;;;6.43;2.00;;;11.50;99.90;;;;;;5073855;28;20203;-74
2023/03/31 02:11:32;;;;;;;8.40;2.50;;;11.50;99.90;;;;;;5073419;28;20171;-73
2023/03/31 02:14:02;;;;;;;8.57;2.43;;;11.50;99.90;;;;;;5073750;28;20179;-73
2023/03/31 02:16:32;;;;;;;9.43;2.20;;;11.50;99.90;;;;;;5073708;28;20196;-73
2023/03/31 02:19:04;;;;;;;9.37;2.40;;;11.50;99.90;;;;;;5084235;28;20223;-73
2023/03/31 02:21:31;;;;;;;9.30;1.97;;;11.40;99.90;;;;;;5093921;28;20168;-74
2023/03/31 02:24:03;;;;;;;8.03;2.07;;;11.40;99.90;;;;;;5075884;28;20180;-74
2023/03/31 02:26:35;;;;;;;9.20;2.60;;;11.40;99.90;;;;;;5093420;28;20171;-74
2023/03/31 02:29:01;;;;;;;6.80;2.03;;;11.40;99.90;;;;;;5093652;28;20168;-73
2023/03/31 02:31:51;;;;;;;9.20;2.03;;;11.40;99.90;;;;;;5093410;28;20203;-75
2023/03/31 02:34:17;;;;;;;7.00;2.13;;;11.40;99.90;;;;;;5093649;28;20180;-73
2023/03/31 02:36:44;;;;;;;7.83;2.03;;;11.40;99.90;;;;;;5093363;28;20203;-75
2023/03/31 02:39:22;;;;;;;6.30;2.10;;;11.30;99.90;;;;;;5093740;28;20156;-74
2023/03/31 02:41:48;;;;;;;6.13;2.07;;;11.40;99.90;;;;;;5093173;28;20172;-75
2023/03/31 02:44:15;;;;;;;6.33;2.20;;;11.40;99.90;;;;;;5093411;28;20168;-74
2023/03/31 02:46:41;;;;;;;5.57;2.07;;;11.40;99.90;;;;;;5093581;28;20585;-74
2023/03/31 02:49:08;;;;;;;7.00;2.00;;;11.50;99.90;;;;;;5093203;28;20176;-76
2023/03/31 02:51:50;;;;;;;6.63;2.07;;;11.50;99.90;;;;;;5093184;28;20270;-74
2023/03/31 02:54:39;;;;;;;8.57;1.97;;;11.50;99.90;;;;;;5093478;28;20235;-73
2023/03/31 02:57:25;;;;;;;10.07;2.00;;;11.50;99.90;;;;;;5092983;28;20210;-74
2023/03/31 03:00:18;;;;;;;6.30;2.20;;;11.50;99.90;;;;;;5093359;28;20160;-73
2023/03/31 03:03:07;;;;;;;7.97;2.20;;;11.50;99.90;;;;;;5093177;28;20164;-74
2023/03/31 03:05:52;;;;;;;10.47;2.07;;;11.50;99.90;;;;;;5096468;28;20661;-72
2023/03/31 03:08:39;;;;;;;5.57;1.93;;;11.50;99.90;;;;;;5100024;28;20163;-74
2023/03/31 03:11:20;;;;;;;11.23;2.30;;;11.50;99.90;;;;;;5099459;28;20186;-74
2023/03/31 03:13:51;;;;;;;10.37;2.70;;;11.50;99.90;;;;;;5099777;28;20173;-72
2023/03/31 03:16:31;;;;;;;7.53;2.30;;;11.50;99.90;;;;;;5098765;28;20274;-75
2023/03/31 03:19:05;;;;;;;5.60;1.80;;;11.50;99.90;;;;;;5099507;28;20229;-74
2023/03/31 03:21:32;;;;;;;10.13;2.47;;;11.40;99.90;;;;;;5099316;28;20171;-75
2023/03/31 03:23:59;;;;;;;8.57;2.50;;;11.40;99.90;;;;;;5099316;28;20175;-75
2023/03/31 03:26:26;;;;;;;8.80;2.30;;;11.40;99.90;;;;;;5099608;28;20178;-74
2023/03/31 03:28:53;;;;;;;9.63;2.23;;;11.40;99.90;;;;;;5099806;28;20183;-74
2023/03/31 03:31:19;;;;;;;7.53;2.00;;;11.30;99.90;;;;;;5099394;28;20164;-75
2023/03/31 03:33:49;;;;;;;9.33;3.10;;;11.30;99.90;;;;;;5099673;28;20172;-75
2023/03/31 03:36:14;;;;;;;9.40;2.50;;;11.40;99.90;;;;;;5099371;28;20653;-74
2023/03/31 03:38:42;;;;;;;13.63;2.87;;;11.30;99.90;;;;;;5098954;28;20167;-75
2023/03/31 03:41:09;;;;;;;8.80;2.90;;;11.20;99.90;;;;;;5099360;28;20262;-74
2023/03/31 03:43:34;;;;;;;6.83;2.07;;;11.10;99.90;;;;;;5099530;28;20168;-75
2023/03/31 03:46:00;;;;;;;6.47;1.80;;;11.10;99.90;;;;;;5099293;28;20669;-75
2023/03/31 03:48:29;;;;;;;5.50;1.60;;;11.20;99.90;;;;;;5099164;28;20639;-75
2023/03/31 03:50:56;;;;;;;5.03;1.60;;;11.00;99.90;;;;;;5098597;28;20191;-75
2023/03/31 03:53:24;;;;;;;2.20;1.10;;;11.00;99.90;;;;;;5098691;28;20650;-74
2023/03/31 03:55:50;;;;;;;2.30;1.10;;;10.90;99.90;;;;;;5099216;28;20186;-73
2023/03/31 03:58:18;;;;;;;1.40;0.90;;;10.70;99.90;;;;;;5099032;28;20211;-73
2023/03/31 04:00:53;;;;;;;1.97;0.87;;;10.60;99.90;;;;;;5099072;28;20217;-73
2023/03/31 04:03:18;;;;;;;1.30;0.67;;;10.60;99.90;;;;;;5098941;28;20644;-75
2023/03/31 04:05:48;;;;;;;2.33;0.47;;;10.50;99.90;;;;;;5099230;28;20172;-73
2023/03/31 04:08:14;;;;;;;1.23;0.93;;;10.40;99.90;;;;;;5098642;28;20167;-74
2023/03/31 04:10:47;;;;;;;1.73;0.50;;;10.30;99.90;;;;;;5098813;28;20659;-74
2023/03/31 04:13:14;;;;;;;0.77;0.40;;;10.30;99.90;;;;;;5099196;28;20205;-75
2023/03/31 04:15:42;;;;;;;3.03;0.83;;;10.40;99.90;;;;;;5099176;28;20179;-75
2023/03/31 04:18:21;;;;;;;2.50;0.87;;;10.40;99.90;;;;;;5094908;28;20303;-73
2023/03/31 04:21:02;;;;;;;1.63;0.90;;;10.40;99.90;;;;;;5095479;28;20166;-75
2023/03/31 04:23:32;;;;;;;1.20;1.10;;;10.40;99.90;;;;;;5095534;28;20160;-74
2023/03/31 04:25:59;;;;;;;2.00;1.43;;;10.40;99.90;;;;;;5095100;28;20171;-73
2023/03/31 04:28:33;;;;;;;3.60;1.50;;;10.50;99.90;;;;;;5095433;28;20251;-74
2023/03/31 04:31:01;;;;;;;4.63;1.77;;;10.50;99.90;;;;;;5095234;28;20163;-74
2023/03/31 04:33:27;;;;;;;5.53;1.53;;;10.50;99.90;;;;;;5095283;28;20666;-73
2023/03/31 04:35:52;;;;;;;6.83;2.00;;;10.50;99.90;;;;;;5095778;28;20164;-73
2023/03/31 04:38:23;;;;;;;6.47;2.07;;;10.60;99.90;;;;;;5094566;28;20210;-74
2023/03/31 04:40:50;;;;;;;4.40;1.90;;;10.60;99.90;;;;;;5095516;28;20168;-73
2023/03/31 04:43:17;;;;;;;7.30;2.33;;;10.60;99.90;;;;;;5095281;28;20179;-73
2023/03/31 04:45:46;;;;;;;7.40;2.50;;;10.80;99.90;;;;;;5095027;28;20533;-74
2023/03/31 04:48:12;;;;;;;8.13;2.63;;;10.80;99.90;;;;;;5095052;28;20268;-74
2023/03/31 04:50:38;;;;;;;7.47;2.67;;;10.90;99.90;;;;;;5094872;28;20530;-74
2023/03/31 04:53:04;;;;;;;8.13;2.67;;;11.00;99.90;;;;;;5094371;28;20537;-75
2023/03/31 04:55:30;;;;;;;7.97;2.63;;;11.00;99.90;;;;;;5076649;28;20533;-73
2023/03/31 04:58:02;;;;;;;10.27;2.53;;;11.00;99.90;;;;;;5094845;28;20208;-74
2023/03/31 05:00:28;;;;;;;11.17;2.90;;;11.10;99.90;;;;;;5094583;28;20172;-74
2023/03/31 05:02:54;;;;;;;10.87;3.30;;;11.20;99.90;;;;;;5094271;28;20175;-74
2023/03/31 05:05:20;;;;;;;10.93;3.30;;;11.20;99.90;;;;;;5094877;28;20700;-73
2023/03/31 05:07:46;;;;;;;12.47;3.37;;;11.20;99.90;;;;;;5094315;28;20486;-75
2023/03/31 05:10:12;;;;;;;10.27;3.20;;;11.20;99.90;;;;;;5094182;28;20535;-75
2023/03/31 05:12:38;;;;;;;9.97;3.23;;;11.30;99.90;;;;;;5094131;28;20168;-74
2023/03/31 05:15:08;;;;;;;15.63;3.77;;;11.30;99.90;;;;;;5094672;28;20190;-75
2023/03/31 05:17:35;;;;;;;12.43;3.13;;;11.30;99.90;;;;;;5094812;28;20226;-74
2023/03/31 05:20:04;;;;;;;12.00;3.93;;;11.30;99.90;;;;;;5093299;28;20255;-73
2023/03/31 05:22:36;;;;;;;13.77;3.53;;;11.30;99.90;;;;;;5093615;28;20221;-72
2023/03/31 05:25:03;;;;;;;14.73;3.23;;;11.30;99.90;;;;;;5094142;28;20172;-74
2023/03/31 05:27:29;;;;;;;11.57;3.53;;;11.30;99.90;;;;;;5093961;28;20172;-73
2023/03/31 05:29:55;;;;;;;13.37;3.73;;;11.30;99.90;;;;;;5094310;28;20251;-73
2023/03/31 05:32:20;;;;;;;14.83;3.53;;;11.30;99.90;;;;;;5094119;28;20175;-74
2023/03/31 05:34:46;;;;;;;14.40;3.63;;;11.30;99.90;;;;;;5093505;28;20226;-74
2023/03/31 05:37:12;;;;;;;12.67;2.80;;;11.30;99.90;;;;;;5094527;28;20204;-73
2023/03/31 05:39:37;;;;;;;12.23;3.60;;;11.40;99.90;;;;;;5093470;28;20168;-76
2023/03/31 05:42:04;;;;;;;15.57;4.17;;;11.40;99.90;;;;;;5093067;28;20183;-76
2023/03/31 05:44:30;;;;;;;10.93;3.50;;;11.40;99.90;;;;;;5093576;28;20164;-76
2023/03/31 05:46:56;;;;;;;16.80;4.07;;;11.40;99.90;;;;;;5093704;28;20535;-75
2023/03/31 05:49:21;;;;;;;14.03;3.50;;;11.50;99.90;;;;;;5093190;28;20166;-77
2023/03/31 05:51:47;;;;;;;10.20;3.27;;;11.50;99.90;;;;;;5094128;28;20266;-76
2023/03/31 05:54:13;;;;;;;13.07;3.83;;;11.50;99.90;;;;;;5093415;28;20168;-76
2023/03/31 05:56:39;;;;;;;18.03;4.17;;;11.50;99.90;;;;;;5093611;28;20199;-75
2023/03/31 05:59:05;;;;;;;12.27;3.63;;;11.50;99.90;;;;;;5093513;28;20259;-75
2023/03/31 06:01:31;;;;;;;11.63;3.60;;;11.60;99.90;;;;;;5092943;28;20265;-76
2023/03/31 06:03:56;;;;;;;18.37;3.97;;;11.60;99.90;;;;;;5092630;28;20635;-76
2023/03/31 06:06:23;;;;;;;13.67;3.47;;;11.60;99.90;;;;;;5092243;28;20167;-76
2023/03/31 06:08:49;;;;;;;13.63;3.60;;;11.70;99.90;;;;;;5093084;28;20168;-75
2023/03/31 06:11:18;;;;;;;10.70;3.70;;;11.70;99.90;;;;;;5093046;28;20613;-75
2023/03/31 06:13:44;;;;;;;12.63;3.20;;;11.70;99.90;;;;;;5092195;28;20203;-75
2023/03/31 06:16:12;;;;;;;13.53;3.67;;;11.80;99.90;;;;;;5093264;28;20190;-75
2023/03/31 06:18:38;;;;;;;14.77;4.17;;;11.80;99.90;;;;;;5092198;28;20216;-74
2023/03/31 06:21:04;;;;;;;15.43;3.70;;;11.90;99.90;;;;;;5093388;28;20179;-75
2023/03/31 06:23:31;;;;;;;12.33;3.93;;;11.90;99.90;;;;;;5092608;28;20654;-75
2023/03/31 06:26:02;;;;;;;13.73;3.93;;;12.00;99.90;;;;;;5092296;28;20164;-76
2023/03/31 06:28:28;;;;;;;14.07;3.13;;;12.10;99.90;;;;;;5093037;28;20556;-75
2023/03/31 06:31:02;;;;;;;13.07;4.27;;;12.10;99.90;;;;;;5091837;28;20175;-75
2023/03/31 06:33:27;;;;;;;14.60;3.63;;;12.20;99.90;;;;;;5073394;28;20176;-75
2023/03/31 06:35:55;;;;;;;14.17;4.00;;;12.20;99.90;;;;;;5092418;28;20168;-74
2023/03/31 06:38:21;;;;;;;17.20;4.27;;;12.30;99.90;;;;;;5092273;28;20203;-75
2023/03/31 06:40:47;;;;;;;17.53;3.63;;;12.40;99.90;;;;;;5091516;28;20213;-75
2023/03/31 06:43:12;;;;;;;12.03;3.47;;;12.50;99.90;;;;;;5092486;28;20742;-75
2023/03/31 06:45:38;;;;;;;8.07;2.83;;;12.60;99.90;;;;;;5092199;28;20229;-76
2023/03/31 06:48:04;;;;;;;17.37;3.60;;;12.70;99.90;;;;;;5091420;28;20266;-74
2023/03/31 06:50:30;;;;;;;17.27;4.13;;;12.80;99.90;;;;;;5091655;28;20192;-76
2023/03/31 06:52:55;;;;;;;11.80;3.30;;;13.00;99.90;;;;;;5092121;28;20187;-77
2023/03/31 06:55:21;;;;;;;15.03;3.80;;;13.20;99.90;;;;;;5092449;28;20631;-77
2023/03/31 06:57:46;;;;;;;20.67;4.13;;;13.30;99.90;;;;;;5092341;28;20271;-77
2023/03/31 07:00:12;;;;;;;17.57;4.20;;;13.20;99.90;;;;;;5092110;28;20635;-76
2023/03/31 07:02:38;;;;;;;14.50;3.83;;;13.10;99.90;;;;;;5091794;28;20168;-76
2023/03/31 07:05:04;;;;;;;12.33;3.77;;;13.10;99.90;;;;;;5073868;28;20179;-77
2023/03/31 07:07:31;;;;;;;15.00;4.07;;;12.90;99.00;;;;;;5092287;28;20184;-75
2023/03/31 07:09:57;;;;;;;15.77;4.20;;;12.90;99.90;;;;;;5092582;28;20190;-76
2023/03/31 07:12:23;;;;;;;18.47;3.83;;;13.00;99.90;;;;;;5092011;28;20708;-76
2023/03/31 07:14:49;;;;;;;15.83;4.07;;;13.00;99.90;;;;;;5091866;28;20219;-76
2023/03/31 07:17:15;;;;;;;13.17;3.63;;;13.00;98.70;;;;;;5091673;28;20207;-75
2023/03/31 07:19:41;;;;;;;11.60;3.77;;;13.00;98.30;;;;;;5091537;28;20560;-75
2023/03/31 07:22:07;;;;;;;16.23;4.20;;;12.90;97.60;;;;;;5091627;28;20557;-74
2023/03/31 07:24:33;;;;;;;13.27;4.20;;;12.90;99.90;;;;;;5092247;28;20172;-76
2023/03/31 07:26:59;;;;;;;13.73;3.80;;;12.90;99.90;;;;;;5092718;28;20194;-74
2023/03/31 07:29:25;;;;;;;13.23;4.10;;;12.90;99.90;;;;;;5092564;28;20527;-74
2023/03/31 07:31:51;;;;;;;14.33;4.20;;;13.00;99.90;;;;;;5091620;28;20695;-75
2023/03/31 07:34:17;;;;;;;13.93;4.00;;;13.00;99.40;;;;;;5091723;28;20267;-76
2023/03/31 07:36:43;;;;;;;21.80;4.67;;;13.00;99.90;;;;;;5091980;28;20296;-75
2023/03/31 07:39:08;;;;;;;15.53;3.93;;;13.00;99.90;;;;;;5092022;28;20183;-75
2023/03/31 07:41:35;;;;;;;20.53;5.00;;;12.90;99.90;;;;;;5092030;28;20221;-75
2023/03/31 07:44:01;;;;;;;17.77;4.43;;;12.70;99.90;;;;;;5074027;28;20230;-75
2023/03/31 07:46:27;;;;;;;19.90;4.40;;;12.60;99.90;;;;;;5073300;28;20533;-74
2023/03/31 07:48:54;;;;;;;19.47;4.90;;;12.60;99.90;;;;;;5091889;28;20188;-75
2023/03/31 07:51:23;;;;;;;15.63;4.67;;;12.50;99.90;;;;;;5093263;28;20195;-75
2023/03/31 07:53:51;;;;;;;17.53;4.87;;;12.50;99.90;;;;;;5096594;28;20176;-75
2023/03/31 07:56:18;;;;;;;15.63;4.00;;;12.50;99.90;;;;;;5095936;28;20164;-74
2023/03/31 07:58:45;;;;;;;17.47;4.17;;;12.50;99.90;;;;;;5095372;28;20211;-75
2023/03/31 08:01:15;;;;;;;16.23;4.60;;;12.40;99.90;;;;;;5095552;28;20278;-75
2023/03/31 08:03:41;;;;;;;18.40;4.80;;;12.50;99.90;;;;;;5095476;28;20265;-75
2023/03/31 08:06:07;;;;;;;25.80;4.93;;;12.50;99.90;;;;;;5095794;28;20192;-75
2023/03/31 08:08:33;;;;;;;15.47;4.27;;;12.50;99.90;;;;;;5095761;28;20176;-76
2023/03/31 08:10:58;;;;;;;15.90;4.17;;;12.50;99.90;;;;;;5095148;28;20697;-75
2023/03/31 08:13:24;;;;;;;18.77;4.50;;;12.60;99.90;;;;;;5095489;28;20160;-75
2023/03/31 08:15:50;;;;;;;18.47;4.37;;;12.70;99.90;;;;;;5095449;28;20225;-75
2023/03/31 08:18:16;;;;;;;17.93;4.20;;;12.80;99.90;;;;;;5073320;28;20228;-75
2023/03/31 08:20:42;;;;;;;18.23;4.17;;;12.90;99.30;;;;;;5075268;28;20169;-76
2023/03/31 08:23:10;;;;;;;19.03;4.13;;;12.90;98.90;;;;;;5074871;28;20324;-74
2023/03/31 08:25:36;;;;;;;18.03;4.13;;;12.90;99.90;;;;;;5074872;28;20164;-76
2023/03/31 08:28:02;;;;;;;16.13;3.97;;;13.00;99.90;;;;;;5075230;28;20173;-76
2023/03/31 08:30:27;;;;;;;19.13;3.57;;;13.00;99.60;;;;;;5074512;28;20199;-76
2023/03/31 08:32:53;;;;;;;15.30;3.77;;;12.90;99.90;;;;;;5074598;28;20622;-77
2023/03/31 08:35:19;;;;;;;15.90;4.00;;;13.00;99.90;;;;;;5075491;28;20175;-76
2023/03/31 08:37:44;;;;;;;15.27;3.73;;;13.10;99.90;;;;;;5074918;28;20212;-75
2023/03/31 08:40:18;;;;;;;16.73;3.80;;;12.90;98.10;;;;;;5074442;28;20168;-75
2023/03/31 08:42:48;;;;;;;10.77;3.87;;;12.90;99.90;;;;;;5074928;28;20168;-75
2023/03/31 08:45:25;;;;;;;12.47;3.90;;;12.90;99.90;;;;;;5074635;28;20168;-75
2023/03/31 08:48:20;;;;;;;14.63;3.90;;;12.90;99.90;;;;;;5074759;28;20199;-77
2023/03/31 08:50:51;;;;;;;11.40;3.43;;;13.10;99.90;;;;;;5037481;28;20180;-77
2023/03/31 08:53:38;;;;;;;12.13;3.80;;;13.30;96.80;;;;;;5074978;28;20284;-78
2023/03/31 08:56:08;;;;;;;13.57;4.50;;;13.40;93.60;;;;;;5074623;28;20689;-76
2023/03/31 08:58:46;;;;;;;17.93;4.10;;;13.50;94.80;;;;;;5074425;28;20237;-77
2023/03/31 09:01:37;;;;;;;16.07;4.50;;;13.50;96.80;;;;;;5075090;28;20614;-76
2023/03/31 09:04:30;;;;;;;17.87;4.83;;;13.40;94.30;;;;;;5073513;28;20165;-76
2023/03/31 09:07:17;;;;;;;17.40;4.83;;;13.40;94.40;;;;;;5074165;28;20196;-75
2023/03/31 09:09:56;;;;;;;17.07;4.93;;;13.20;99.80;;;;;;5074804;28;20247;-75
2023/03/31 09:12:44;;;;;;;18.17;5.37;;;13.20;99.90;;;;;;5073927;28;20176;-76
2023/03/31 09:15:16;;;;;;;13.17;4.70;;;13.20;99.90;;;;;;5074185;28;20223;-76
2023/03/31 09:17:47;;;;;;;19.07;4.67;;;13.10;99.90;;;;;;5074121;28;20283;-75
2023/03/31 09:20:19;;;;;;;13.83;4.10;;;13.30;99.90;;;;;;5094683;28;20180;-77
2023/03/31 09:22:59;;;;;;;16.93;4.50;;;13.30;99.90;;;;;;5076095;28;20171;-76
2023/03/31 09:25:34;;;;;;;17.00;4.40;;;13.40;99.90;;;;;;5094105;28;20160;-76
2023/03/31 09:28:04;;;;;;;18.07;4.00;;;13.30;99.90;;;;;;5093907;28;20170;-75
2023/03/31 09:30:33;;;;;;;19.70;4.53;;;13.30;97.70;;;;;;5094012;28;20214;-77
2023/03/31 09:33:14;;;;;;;19.20;3.57;;;13.30;98.30;;;;;;5094297;28;20172;-76
2023/03/31 09:35:40;;;;;;;19.30;4.93;;;13.30;94.30;;;;;;5094892;28;20569;-75
2023/03/31 09:38:06;;;;;;;19.77;4.63;;;13.20;99.00;;;;;;5094162;28;20199;-76
2023/03/31 09:40:33;;;;;;;21.27;5.20;;;13.30;99.90;;;;;;5093926;28;20175;-76
2023/03/31 09:43:02;;;;;;;20.73;3.90;;;13.30;99.90;;;;;;5093683;28;20206;-76
2023/03/31 09:45:30;;;;;;;19.90;4.70;;;13.20;96.00;;;;;;5094193;28;20228;-76
2023/03/31 09:48:17;;;;;;;19.47;4.63;;;13.30;99.90;;;;;;5094034;28;20183;-76
2023/03/31 09:50:54;;;;;;;20.20;4.93;;;13.40;99.90;;;;;;5093677;28;20639;-76
2023/03/31 09:53:49;;;;;;;26.17;5.63;;;13.40;99.90;;;;;;5094069;28;20164;-78
2023/03/31 09:56:52;;;;;;;22.47;4.80;;;13.40;99.90;;;;;;5048041;28;20180;-76
2023/03/31 09:59:20;;;;;;;15.87;4.53;;;13.10;99.90;;;;;;5093816;28;20187;-76
2023/03/31 10:01:49;;;;;;;18.80;4.70;;;13.20;99.90;;;;;;5075451;28;20172;-76
2023/03/31 10:04:22;;;;;;;18.07;5.10;;;13.20;99.90;;;;;;5093801;28;20171;-76
2023/03/31 10:06:51;;;;;;;18.90;5.40;;;13.20;99.80;;;;;;5093670;28;20247;-76
2023/03/31 10:09:18;;;;;;;19.40;5.20;;;13.30;99.90;;;;;;5093604;28;20171;-76
2023/03/31 10:12:05;;;;;;;19.33;4.83;;;13.30;99.90;;;;;;5092967;28;20172;-75
2023/03/31 10:14:42;;;;;;;21.17;5.37;;;13.10;99.90;;;;;;5092876;28;20188;-77
2023/03/31 10:17:14;;;;;;;18.00;5.40;;;13.20;99.90;;;;;;5093062;28;20207;-77
2023/03/31 10:19:48;;;;;;;19.40;4.70;;;13.30;99.90;;;;;;5092904;28;20208;-74
2023/03/31 10:22:35;;;;;;;19.67;4.80;;;13.20;99.90;;;;;;5093084;28;20175;-76
2023/03/31 10:25:32;;;;;;;20.03;5.10;;;13.10;99.90;;;;;;5091902;28;20183;-75
2023/03/31 10:27:59;;;;;;;23.47;5.53;;;13.10;99.90;;;;;;5010569;28;20312;-74
2023/03/31 10:30:32;;;;;;;19.20;5.07;;;13.10;98.10;;;;;;5011574;28;20218;-74
2023/03/31 10:32:58;;;;;;;16.63;5.03;;;13.20;92.10;;;;;;5010747;28;20671;-74
2023/03/31 10:35:29;;;;;;;13.83;4.33;;;13.30;86.00;;;;;;5010502;28;20313;-77
2023/03/31 10:37:57;;;;;;;18.57;5.47;;;13.50;85.00;;;;;;5010814;28;20226;-76
2023/03/31 10:40:28;;;;;;;18.20;4.73;;;13.70;70.80;;;;;;5010505;28;20606;-76
2023/03/31 10:43:15;;;;;;;16.40;4.50;;;13.70;67.70;;;;;;5010897;28;20193;-75
2023/03/31 10:45:55;;;;;;;16.93;4.53;;;13.60;77.10;;;;;;5011107;28;20185;-76
2023/03/31 10:48:27;;;;;;;17.97;4.57;;;13.60;81.50;;;;;;5010761;28;20286;-75
2023/03/31 10:50:58;;;;;;;21.37;5.17;;;13.80;68.00;;;;;;5010847;28;20203;-76
2023/03/31 10:53:24;;;;;;;14.30;4.70;;;13.90;53.80;;;;;;5010804;28;20228;-75
2023/03/31 10:55:52;;;;;;;18.90;4.60;;;13.90;58.60;;;;;;5010412;28;20178;-75
2023/03/31 10:58:36;;;;;;;12.80;4.30;;;13.90;61.90;;;;;;5010460;28;20221;-76
2023/03/31 11:01:17;;;;;;;18.43;4.53;;;13.90;60.90;;;;;;5010964;28;20167;-75
2023/03/31 11:04:01;;;;;;;17.10;4.80;;;14.10;60.40;;;;;;5030442;28;20262;-77
2023/03/31 11:07:05;;;;;;;12.50;3.40;;;14.00;61.00;;;;;;5092904;28;20210;-77
2023/03/31 11:09:43;;;;;;;19.00;4.80;;;13.70;78.50;;;;;;5091811;28;20163;-78
2023/03/31 11:12:22;;;;;;;16.37;4.80;;;13.50;99.50;;;;;;5092524;28;20191;-77
2023/03/31 11:14:59;;;;;;;15.77;4.87;;;13.50;97.90;;;;;;5092523;28;20172;-75
2023/03/31 11:17:48;;;;;;;20.43;5.67;;;13.30;99.90;;;;;;5091915;28;20195;-77
2023/03/31 11:20:36;;;;;;;19.13;4.90;;;13.40;99.90;;;;;;5052748;28;20195;-76
2023/03/31 11:23:37;;;;;;;18.63;5.10;;;13.40;99.90;;;;;;5051689;28;20175;-75
2023/03/31 11:26:17;;;;;;;15.47;4.40;;;13.40;99.90;;;;;;5032610;28;20185;-75
2023/03/31 11:29:15;;;;;;;24.67;5.00;;;13.40;99.90;;;;;;5055893;28;20169;-76
2023/03/31 11:32:08;;;;;;;15.37;4.50;;;13.60;99.90;;;;;;5055934;28;20173;-76
2023/03/31 11:34:36;;;;;;;15.57;4.53;;;13.60;99.90;;;;;;5056259;28;20652;-76
2023/03/31 11:37:17;;;;;;;11.43;3.30;;;13.70;95.20;;;;;;5055582;28;20281;-76
2023/03/31 11:40:11;;;;;;;7.63;3.20;;;13.70;86.40;;;;;;5056318;28;20651;-75
2023/03/31 11:42:47;;;;;;;11.40;3.47;;;14.00;63.90;;;;;;5051731;28;20185;-75
2023/03/31 11:45:36;;;;;;;11.53;3.13;;;14.10;99.90;;;;;;5056087;28;20176;-75
2023/03/31 11:48:09;;;;;;;10.53;2.90;;;14.30;99.90;;;;;;5055558;28;20165;-76
2023/03/31 11:50:38;;;;;;;10.87;3.10;;;14.20;99.90;;;;;;5055939;28;20215;-76
2023/03/31 11:53:35;;;;;;;9.70;3.13;;;14.10;99.90;;;;;;5055545;28;20166;-76
2023/03/31 11:56:03;;;;;;;11.50;3.67;;;14.00;99.90;;;;;;5054765;28;20291;-76
2023/03/31 11:58:44;;;;;;;14.23;3.43;;;13.90;99.90;;;;;;5055436;28;20239;-76
2023/03/31 12:01:32;;;;;;;9.97;3.13;;;13.90;99.90;;;;;;5055498;28;20569;-75
2023/03/31 12:04:16;;;;;;;13.27;3.70;;;13.90;99.90;;;;;;5055424;28;20251;-77
2023/03/31 12:06:45;;;;;;;13.80;3.67;;;13.90;99.90;;;;;;5055218;28;20160;-76
2023/03/31 12:09:18;;;;;;;12.70;3.60;;;13.60;99.90;;;;;;5055245;28;20218;-76
2023/03/31 12:12:15;;;;;;;8.07;2.90;;;13.60;99.90;;;;;;5055360;28;20264;-76
2023/03/31 12:15:05;;;;;;;11.97;3.20;;;13.30;99.90;;;;;;5055467;28;20288;-75
2023/03/31 12:17:31;;;;;;;15.23;3.70;;;13.00;99.90;;;;;;5055348;28;20292;-74
2023/03/31 12:20:09;;;;;;;10.57;3.33;;;12.80;99.90;;;;;;5092565;28;20326;-74
2023/03/31 12:22:44;;;;;;;9.00;3.07;;;12.60;99.90;;;;;;5094957;28;20250;-75
2023/03/31 12:25:15;;;;;;;13.90;3.67;;;12.50;99.90;;;;;;5095284;28;20263;-75
2023/03/31 12:27:53;;;;;;;12.37;3.13;;;12.30;99.90;;;;;;5095752;28;20167;-75
2023/03/31 12:30:41;;;;;;;10.77;2.90;;;12.20;99.90;;;;;;5094975;28;20168;-75
2023/03/31 12:33:14;;;;;;;10.03;2.73;;;12.20;99.90;;;;;;5095175;28;20168;-75
2023/03/31 12:36:08;;;;;;;10.73;2.73;;;12.20;99.90;;;;;;5095079;28;20243;-77
2023/03/31 12:38:57;;;;;;;10.47;2.50;;;12.40;99.90;;;;;;5093690;28;20213;-76
2023/03/31 12:42:04;;;;;;;10.07;2.63;;;12.50;99.90;;;;;;5095009;28;20218;-76
2023/03/31 12:44:33;;;;;;;9.13;2.50;;;12.60;99.90;;;;;;5095086;28;20190;-77
2023/03/31 12:47:28;;;;;;;7.43;2.37;;;12.80;99.90;;;;;;5094326;28;20164;-77
2023/03/31 12:50:18;;;;;;;7.80;2.40;;;12.80;99.90;;;;;;5094557;28;20631;-77
2023/03/31 12:53:08;;;;;;;8.90;2.20;;;12.80;99.90;;;;;;5095411;28;20230;-77
2023/03/31 12:55:47;;;;;;;9.70;2.03;;;12.70;99.90;;;;;;5095091;28;20172;-76
2023/03/31 12:58:28;;;;;;;7.90;1.70;;;12.80;99.90;;;;;;5094391;28;20696;-76
2023/03/31 13:01:06;;;;;;;9.43;1.83;;;13.10;99.90;;;;;;5094649;28;20262;-77
2023/03/31 13:03:34;;;;;;;3.90;1.53;;;13.30;99.90;;;;;;5094185;28;20172;-78
2023/03/31 13:06:04;;;;;;;6.03;1.80;;;13.50;99.90;;;;;;5094116;28;20183;-76
2023/03/31 13:08:51;;;;;;;4.07;1.20;;;13.60;99.90;;;;;;5094886;28;20262;-77
2023/03/31 13:11:19;;;;;;;5.10;1.47;;;13.60;99.90;;;;;;5094222;28;20642;-78